createdAt,value
2023-05-16T00:00:39.341Z,19.13
2023-05-16T00:03:07.793Z,19.70
2023-05-16T00:05:36.184Z,20.40
2023-05-16T00:08:04.043Z,19.43
2023-05-16T00:10:33.428Z,19.60
2023-05-16T00:13:02.077Z,20.33
2023-05-16T00:15:30.828Z,19.60
2023-05-16T00:17:59.738Z,19.40
2023-05-16T00:20:28.740Z,19.80
2023-05-16T00:23:01.234Z,20.27
2023-05-16T00:25:29.710Z,21.43
2023-05-16T00:28:00.520Z,20.73
2023-05-16T00:30:28.809Z,20.50
2023-05-16T00:32:57.113Z,20.50
2023-05-16T00:35:25.151Z,20.03
2023-05-16T00:37:53.165Z,22.07
2023-05-16T00:40:21.713Z,20.93
2023-05-16T00:42:49.767Z,20.30
2023-05-16T00:45:19.189Z,21.43
2023-05-16T00:47:47.096Z,21.27
2023-05-16T00:50:15.152Z,20.57
2023-05-16T00:52:43.807Z,20.33
2023-05-16T00:55:11.910Z,20.63
2023-05-16T00:57:40.691Z,19.60
2023-05-16T01:00:10.823Z,21.17
2023-05-16T01:02:40.282Z,20.23
2023-05-16T01:05:09.458Z,20.57
2023-05-16T01:07:37.564Z,20.87
2023-05-16T01:10:07.999Z,21.97
2023-05-16T01:12:43.042Z,20.03
2023-05-16T01:15:14.450Z,19.03
2023-05-16T01:17:54.868Z,19.77
2023-05-16T01:20:33.621Z,18.53
2023-05-16T01:23:15.172Z,18.80
2023-05-16T01:25:57.730Z,18.70
2023-05-16T01:28:28.562Z,19.53
2023-05-16T01:30:56.529Z,18.90
2023-05-16T01:33:24.629Z,18.80
2023-05-16T01:36:00.764Z,19.20
2023-05-16T01:38:34.848Z,18.97
2023-05-16T01:41:09.817Z,18.83
2023-05-16T01:43:45.429Z,18.87
2023-05-16T01:46:16.855Z,19.20
2023-05-16T01:48:52.612Z,18.93
2023-05-16T01:51:23.955Z,18.50
2023-05-16T01:53:53.668Z,18.63
2023-05-16T01:56:23.015Z,18.43
2023-05-16T01:58:54.227Z,18.43
2023-05-16T02:01:22.244Z,18.47
2023-05-16T02:03:51.205Z,18.77
2023-05-16T02:06:19.272Z,18.93
2023-05-16T02:08:47.201Z,19.33
2023-05-16T02:11:15.153Z,18.63
2023-05-16T02:13:43.145Z,18.93
2023-05-16T02:16:13.468Z,18.83
2023-05-16T02:18:41.555Z,18.83
2023-05-16T02:21:09.717Z,18.80
2023-05-16T02:23:37.643Z,18.10
2023-05-16T02:26:05.766Z,18.43
2023-05-16T02:28:33.858Z,18.40
2023-05-16T02:31:02.475Z,18.83
2023-05-16T02:33:31.875Z,19.03
2023-05-16T02:35:59.851Z,17.17
2023-05-16T02:38:27.830Z,18.03
2023-05-16T02:40:56.326Z,19.77
2023-05-16T02:43:24.269Z,16.87
2023-05-16T02:45:53.214Z,16.60
2023-05-16T02:48:21.344Z,16.43
2023-05-16T02:50:50.830Z,16.53
2023-05-16T02:53:18.760Z,15.73
2023-05-16T02:55:47.115Z,16.90
2023-05-16T02:58:15.254Z,17.13
2023-05-16T03:00:43.231Z,18.63
2023-05-16T03:03:11.292Z,16.90
2023-05-16T03:05:39.383Z,17.30
2023-05-16T03:08:08.767Z,17.73
2023-05-16T03:10:36.755Z,16.63
2023-05-16T03:13:04.753Z,17.53
2023-05-16T03:15:51.317Z,19.47
2023-05-16T03:18:19.267Z,17.40
2023-05-16T03:20:47.386Z,17.10
2023-05-16T03:23:16.746Z,17.27
2023-05-16T03:25:46.339Z,17.83
2023-05-16T03:28:15.467Z,16.90
2023-05-16T03:30:43.657Z,17.07
2023-05-16T03:33:12.566Z,17.33
2023-05-16T03:35:41.104Z,17.43
2023-05-16T03:38:09.318Z,16.73
2023-05-16T03:40:39.222Z,17.30
2023-05-16T03:43:07.213Z,17.43
2023-05-16T03:45:35.378Z,19.10
2023-05-16T03:48:03.363Z,17.77
2023-05-16T03:50:31.342Z,18.60
2023-05-16T03:52:59.543Z,18.17
2023-05-16T03:55:27.616Z,19.57
2023-05-16T03:57:56.957Z,19.03
2023-05-16T04:00:24.903Z,20.07
2023-05-16T04:02:53.235Z,18.00
2023-05-16T04:05:21.629Z,18.67
2023-05-16T04:07:49.658Z,16.87
2023-05-16T04:10:17.636Z,16.83
2023-05-16T04:12:46.113Z,17.27
2023-05-16T04:15:15.846Z,18.13
2023-05-16T04:17:43.863Z,21.27
2023-05-16T04:20:12.743Z,20.43
2023-05-16T04:22:40.743Z,19.43
2023-05-16T04:25:09.496Z,18.27
2023-05-16T04:27:37.678Z,18.50
2023-05-16T04:30:06.591Z,19.20
2023-05-16T04:32:37.009Z,20.23
2023-05-16T04:35:05.180Z,19.83
2023-05-16T04:37:33.142Z,18.90
2023-05-16T04:40:01.145Z,21.00
2023-05-16T04:42:29.102Z,18.47
2023-05-16T04:44:57.473Z,19.67
2023-05-16T04:47:27.888Z,20.30
2023-05-16T04:49:57.711Z,19.43
2023-05-16T04:52:25.745Z,22.60
2023-05-16T04:54:53.620Z,19.57
2023-05-16T04:57:21.668Z,18.77
2023-05-16T04:59:49.686Z,23.93
2023-05-16T05:02:17.853Z,24.83
2023-05-16T05:04:45.965Z,21.10
2023-05-16T05:07:16.045Z,20.97
2023-05-16T05:09:44.084Z,23.97
2023-05-16T05:12:12.646Z,24.47
2023-05-16T05:14:40.578Z,25.40
2023-05-16T05:17:08.891Z,26.30
2023-05-16T05:19:37.242Z,31.90
2023-05-16T05:22:05.341Z,24.20
2023-05-16T05:24:34.746Z,21.57
2023-05-16T05:27:03.127Z,19.50
2023-05-16T05:29:31.022Z,20.77
2023-05-16T05:31:59.023Z,19.03
2023-05-16T05:34:27.007Z,19.33
2023-05-16T05:36:55.030Z,19.57
2023-05-16T05:39:24.458Z,19.67
2023-05-16T05:41:53.812Z,18.57
2023-05-16T05:44:21.794Z,19.07
2023-05-16T05:46:49.864Z,18.37
2023-05-16T05:49:18.040Z,22.33
2023-05-16T05:51:46.059Z,22.30
2023-05-16T05:54:14.045Z,21.30
2023-05-16T05:56:42.105Z,19.13
2023-05-16T05:59:11.606Z,20.73
2023-05-16T06:01:40.327Z,17.50
2023-05-16T06:04:08.349Z,18.63
2023-05-16T06:06:36.573Z,17.73
2023-05-16T06:09:05.069Z,16.70
2023-05-16T06:11:33.158Z,15.23
2023-05-16T06:14:01.162Z,14.67
2023-05-16T06:16:30.589Z,15.10
2023-05-16T06:18:58.696Z,17.67
2023-05-16T06:21:26.710Z,17.30
2023-05-16T06:23:54.705Z,16.63
2023-05-16T06:26:22.824Z,16.70
2023-05-16T06:28:50.855Z,17.73
2023-05-16T06:31:18.934Z,15.73
2023-05-16T06:33:48.330Z,20.27
2023-05-16T06:36:16.310Z,15.20
2023-05-16T06:38:44.387Z,15.53
2023-05-16T06:41:12.325Z,17.47
2023-05-16T06:43:41.388Z,16.10
2023-05-16T06:46:09.603Z,23.53
2023-05-16T06:48:37.579Z,16.77
2023-05-16T06:51:07.235Z,19.17
2023-05-16T06:53:35.232Z,21.67
2023-05-16T06:56:03.369Z,15.80
2023-05-16T06:58:31.545Z,15.57
2023-05-16T07:00:59.632Z,15.93
2023-05-16T07:03:27.855Z,21.00
2023-05-16T07:05:55.916Z,18.30
2023-05-16T07:08:25.800Z,18.50
2023-05-16T07:10:53.870Z,19.47
2023-05-16T07:13:22.296Z,22.73
2023-05-16T07:15:50.259Z,28.33
2023-05-16T07:18:18.314Z,20.80
2023-05-16T07:20:46.822Z,25.57
2023-05-16T07:23:14.849Z,17.77
2023-05-16T07:25:44.464Z,14.67
2023-05-16T07:28:12.503Z,18.67
2023-05-16T07:30:40.578Z,22.73
2023-05-16T07:33:08.601Z,20.67
2023-05-16T07:35:36.625Z,16.77
2023-05-16T07:38:04.765Z,14.47
2023-05-16T07:40:32.833Z,18.97
2023-05-16T07:43:02.889Z,16.13
2023-05-16T07:45:31.137Z,16.00
2023-05-16T07:48:00.214Z,18.87
2023-05-16T07:50:28.259Z,20.47
2023-05-16T07:52:56.558Z,19.80
2023-05-16T07:55:24.721Z,13.90
2023-05-16T07:57:53.291Z,13.77
2023-05-16T08:00:23.498Z,15.77
2023-05-16T08:02:52.168Z,16.10
2023-05-16T08:05:20.514Z,17.07
2023-05-16T08:07:48.588Z,13.63
2023-05-16T08:10:16.751Z,14.93
2023-05-16T08:12:45.081Z,15.63
2023-05-16T08:15:13.249Z,17.60
2023-05-16T08:17:42.795Z,18.50
2023-05-16T08:20:12.231Z,16.07
2023-05-16T08:22:40.525Z,14.83
2023-05-16T08:25:09.855Z,19.30
2023-05-16T08:27:37.870Z,14.73
2023-05-16T08:30:08.037Z,17.30
2023-05-16T08:32:38.243Z,14.20
2023-05-16T08:35:08.997Z,19.50
2023-05-16T08:37:37.008Z,18.00
2023-05-16T08:40:08.443Z,14.37
2023-05-16T08:42:37.580Z,13.90
2023-05-16T08:45:06.835Z,12.07
2023-05-16T08:47:36.913Z,12.33
2023-05-16T08:50:05.706Z,14.47
2023-05-16T08:52:39.383Z,16.73
2023-05-16T08:55:12.099Z,18.27
2023-05-16T08:57:40.722Z,19.40
2023-05-16T09:00:13.124Z,16.38
2023-05-16T09:02:42.333Z,13.43
2023-05-16T09:05:13.422Z,15.57
2023-05-16T09:07:43.171Z,12.35
2023-05-16T09:10:12.293Z,12.95
2023-05-16T09:12:42.297Z,13.50
2023-05-16T09:15:11.829Z,12.55
2023-05-16T09:17:44.461Z,12.95
2023-05-16T09:20:15.104Z,11.10
2023-05-16T09:22:53.195Z,11.63
2023-05-16T09:25:30.183Z,11.75
2023-05-16T09:28:01.547Z,10.65
2023-05-16T09:30:31.884Z,12.82
2023-05-16T09:33:00.454Z,11.68
2023-05-16T09:38:01.050Z,12.40
2023-05-16T09:40:29.058Z,12.75
2023-05-16T09:43:06.952Z,13.00
2023-05-16T09:45:36.363Z,12.38
2023-05-16T09:48:07.387Z,11.55
2023-05-16T09:50:36.122Z,15.50
2023-05-16T09:53:06.051Z,12.23
2023-05-16T09:55:34.549Z,14.73
2023-05-16T09:58:02.493Z,12.57
2023-05-16T10:00:32.057Z,13.40
2023-05-16T10:03:04.776Z,11.32
2023-05-16T10:05:37.043Z,11.55
2023-05-16T10:08:07.556Z,14.70
2023-05-16T10:10:39.636Z,10.82
2023-05-16T10:13:09.457Z,14.70
2023-05-16T10:15:39.099Z,14.57
2023-05-16T10:18:12.254Z,11.70
2023-05-16T10:20:43.003Z,11.32
2023-05-16T10:23:18.793Z,11.18
2023-05-16T10:25:48.118Z,11.27
2023-05-16T10:28:17.220Z,11.98
2023-05-16T10:30:46.532Z,11.00
2023-05-16T10:33:15.918Z,12.10
2023-05-16T10:35:45.056Z,13.30
2023-05-16T10:38:16.334Z,12.13
2023-05-16T10:40:46.204Z,11.90
2023-05-16T10:43:24.795Z,16.38
2023-05-16T10:45:56.506Z,12.73
2023-05-16T10:48:50.432Z,14.00
2023-05-16T10:51:36.853Z,12.50
2023-05-16T10:54:11.365Z,11.75
2023-05-16T10:56:39.914Z,11.65
2023-05-16T10:59:24.271Z,14.85
2023-05-16T11:01:54.562Z,12.00
2023-05-16T11:04:22.789Z,10.65
2023-05-16T11:06:56.737Z,11.95
2023-05-16T11:09:28.309Z,11.02
2023-05-16T11:12:06.630Z,10.93
2023-05-16T11:14:42.578Z,11.68
2023-05-16T11:17:13.517Z,15.82
2023-05-16T11:19:44.188Z,13.23
2023-05-16T11:22:17.039Z,13.38
2023-05-16T11:24:58.445Z,13.52
2023-05-16T11:27:29.461Z,12.40
2023-05-16T11:30:03.263Z,15.40
2023-05-16T11:32:32.655Z,15.75
2023-05-16T11:35:00.808Z,13.80
2023-05-16T11:37:29.499Z,11.93
2023-05-16T11:40:02.632Z,12.05
2023-05-16T11:42:34.005Z,9.65
2023-05-16T11:45:09.242Z,12.48
2023-05-16T11:47:38.782Z,11.27
2023-05-16T11:50:08.029Z,13.30
2023-05-16T11:52:36.587Z,11.05
2023-05-16T11:55:11.224Z,11.70
2023-05-16T11:57:40.246Z,14.90
2023-05-16T12:00:16.977Z,20.42
2023-05-16T12:02:45.609Z,10.68
2023-05-16T12:05:14.680Z,14.63
2023-05-16T12:07:44.857Z,15.02
2023-05-16T12:10:16.958Z,15.30
2023-05-16T12:12:47.705Z,11.82
2023-05-16T12:15:16.442Z,12.15
2023-05-16T12:17:44.984Z,10.57
2023-05-16T12:20:14.667Z,11.95
2023-05-16T12:22:43.422Z,10.02
2023-05-16T12:25:27.928Z,9.73
2023-05-16T12:27:58.236Z,12.25
2023-05-16T12:30:27.880Z,9.38
2023-05-16T12:32:59.859Z,10.27
2023-05-16T12:35:32.288Z,12.30
2023-05-16T12:38:00.288Z,9.43
2023-05-16T12:40:31.507Z,10.98
2023-05-16T12:43:00.672Z,11.75
2023-05-16T12:45:29.097Z,11.77
2023-05-16T12:47:57.431Z,9.70
2023-05-16T12:50:29.286Z,10.20
2023-05-16T12:53:01.371Z,10.63
2023-05-16T12:55:31.013Z,10.68
2023-05-16T12:57:59.425Z,14.38
2023-05-16T13:00:28.060Z,10.60
2023-05-16T13:02:56.551Z,12.50
2023-05-16T13:05:24.604Z,14.90
2023-05-16T13:07:52.885Z,16.70
2023-05-16T13:10:21.301Z,13.07
2023-05-16T13:12:50.791Z,13.85
2023-05-16T13:15:19.276Z,11.65
2023-05-16T13:17:48.612Z,14.65
2023-05-16T13:20:17.524Z,15.15
2023-05-16T13:22:46.474Z,14.70
2023-05-16T13:25:14.564Z,17.48
2023-05-16T13:27:42.573Z,12.77
2023-05-16T13:30:12.667Z,13.32
2023-05-16T13:32:40.679Z,14.45
2023-05-16T13:35:09.823Z,12.43
2023-05-16T13:37:38.145Z,12.52
2023-05-16T13:40:10.468Z,14.48
2023-05-16T13:42:39.859Z,14.50
2023-05-16T13:45:09.073Z,17.00
2023-05-16T13:47:38.626Z,13.40
2023-05-16T13:50:10.304Z,18.77
2023-05-16T13:52:39.192Z,17.88
2023-05-16T13:55:08.635Z,16.67
2023-05-16T13:57:36.899Z,12.82
2023-05-16T14:00:35.364Z,10.90
2023-05-16T14:03:01.682Z,14.40
2023-05-16T14:05:29.755Z,13.85
2023-05-16T14:07:58.098Z,16.02
2023-05-16T14:10:26.692Z,14.80
2023-05-16T14:12:54.989Z,14.43
2023-05-16T14:15:22.982Z,14.88
2023-05-16T14:17:51.155Z,12.48
2023-05-16T14:20:20.745Z,15.38
2023-05-16T14:22:50.762Z,14.75
2023-05-16T14:25:18.867Z,15.02
2023-05-16T14:27:46.911Z,19.08
2023-05-16T14:30:15.242Z,17.23
2023-05-16T14:32:43.363Z,28.17
2023-05-16T14:35:11.797Z,15.02
2023-05-16T14:37:41.233Z,18.23
2023-05-16T14:40:10.936Z,17.92
2023-05-16T14:42:39.020Z,18.38
2023-05-16T14:45:08.005Z,23.63
2023-05-16T14:47:36.462Z,23.17
2023-05-16T14:50:04.961Z,20.67
2023-05-16T14:52:35.626Z,20.73
2023-05-16T14:55:06.217Z,20.83
2023-05-16T14:57:34.681Z,20.17
2023-05-16T15:00:02.671Z,15.27
2023-05-16T15:02:30.751Z,19.20
2023-05-16T15:04:59.023Z,22.63
2023-05-16T15:07:27.104Z,28.75
2023-05-16T15:09:55.753Z,21.77
2023-05-16T15:12:25.285Z,20.38
2023-05-16T15:14:53.209Z,21.25
2023-05-16T15:17:21.270Z,27.50
2023-05-16T15:19:50.535Z,24.45
2023-05-16T15:22:20.886Z,29.17
2023-05-16T15:24:49.036Z,24.02
2023-05-16T15:27:17.296Z,25.52
2023-05-16T15:29:49.673Z,21.83
2023-05-16T15:32:18.400Z,22.90
2023-05-16T15:34:46.593Z,25.23
2023-05-16T15:37:14.537Z,21.60
2023-05-16T15:39:42.663Z,22.80
2023-05-16T15:42:11.504Z,22.00
2023-05-16T15:44:40.027Z,20.80
2023-05-16T15:47:10.929Z,23.33
2023-05-16T15:49:39.370Z,18.60
2023-05-16T15:52:07.474Z,21.70
2023-05-16T15:54:35.778Z,21.73
2023-05-16T15:57:03.853Z,22.63
2023-05-16T15:59:32.132Z,22.67
2023-05-16T16:02:04.328Z,17.53
2023-05-16T16:04:34.197Z,16.57
2023-05-16T16:07:02.295Z,16.83
2023-05-16T16:09:30.501Z,21.43
2023-05-16T16:11:59.375Z,19.73
2023-05-16T16:14:27.544Z,16.30
2023-05-16T16:16:55.571Z,15.63
2023-05-16T16:19:23.774Z,18.30
2023-05-16T16:21:53.722Z,17.40
2023-05-16T16:24:21.745Z,17.57
2023-05-16T16:26:49.693Z,18.23
2023-05-16T16:29:17.863Z,14.13
2023-05-16T16:31:45.861Z,14.93
2023-05-16T16:34:13.842Z,15.87
2023-05-16T16:36:42.291Z,20.00
2023-05-16T16:39:12.016Z,18.50
2023-05-16T16:41:40.518Z,18.43
2023-05-16T16:44:08.642Z,18.33
2023-05-16T16:46:36.892Z,19.40
2023-05-16T16:49:05.465Z,18.83
2023-05-16T16:51:35.172Z,16.63
2023-05-16T16:54:03.258Z,19.47
2023-05-16T16:56:36.401Z,18.23
2023-05-16T16:59:04.458Z,19.20
2023-05-16T17:01:32.937Z,20.57
2023-05-16T17:04:02.163Z,17.70
2023-05-16T17:06:30.493Z,23.00
2023-05-16T17:09:02.509Z,20.13
2023-05-16T17:11:36.030Z,19.47
2023-05-16T17:14:06.344Z,18.17
2023-05-16T17:16:37.931Z,18.40
2023-05-16T17:19:06.227Z,17.90
2023-05-16T17:21:37.249Z,19.47
2023-05-16T17:24:07.000Z,18.33
2023-05-16T17:26:39.701Z,21.10
2023-05-16T17:29:10.488Z,19.93
2023-05-16T17:31:42.053Z,19.33
2023-05-16T17:34:11.427Z,19.50
2023-05-16T17:36:40.991Z,20.20
2023-05-16T17:39:10.642Z,18.17
2023-05-16T17:41:40.535Z,19.07
2023-05-16T17:44:09.459Z,19.53
2023-05-16T17:46:38.460Z,18.43
2023-05-16T17:49:07.541Z,19.67
2023-05-16T17:51:47.562Z,19.73
2023-05-16T17:54:16.120Z,20.43
2023-05-16T17:56:45.847Z,21.00
2023-05-16T17:59:15.146Z,24.50
2023-05-16T18:01:45.054Z,24.37
2023-05-16T18:04:14.567Z,21.77
2023-05-16T18:06:44.140Z,23.87
2023-05-16T18:09:15.081Z,23.37
2023-05-16T18:11:43.242Z,23.03
2023-05-16T18:14:15.586Z,25.20
2023-05-16T18:16:45.605Z,24.20
2023-05-16T18:19:13.785Z,24.90
2023-05-16T18:21:44.421Z,22.53
2023-05-16T18:24:13.533Z,21.50
2023-05-16T18:26:42.052Z,22.73
2023-05-16T18:29:10.970Z,21.80
2023-05-16T18:31:42.515Z,21.73
2023-05-16T18:34:12.070Z,22.10
2023-05-16T18:36:41.770Z,22.53
2023-05-16T18:39:10.798Z,23.33
2023-05-16T18:41:39.000Z,21.27
2023-05-16T18:44:07.282Z,20.47
2023-05-16T18:46:38.367Z,20.70
2023-05-16T18:49:08.375Z,25.00
2023-05-16T18:51:36.777Z,18.70
2023-05-16T18:54:05.800Z,17.13
2023-05-16T18:56:34.502Z,16.67
2023-05-16T18:59:03.078Z,16.43
2023-05-16T19:01:31.392Z,15.70
2023-05-16T19:03:59.605Z,16.90
2023-05-16T19:06:29.461Z,15.53
2023-05-16T19:08:58.053Z,15.97
2023-05-16T19:11:26.713Z,18.07
2023-05-16T19:13:55.085Z,18.83
2023-05-16T19:16:23.193Z,18.00
2023-05-16T19:18:51.981Z,16.87
2023-05-16T19:21:20.148Z,17.83
2023-05-16T19:23:50.121Z,18.13
2023-05-16T19:26:18.227Z,21.63
2023-05-16T19:28:46.381Z,20.23
2023-05-16T19:31:14.546Z,19.83
2023-05-16T19:33:42.729Z,16.33
2023-05-16T19:36:10.961Z,18.47
2023-05-16T19:38:39.268Z,16.97
2023-05-16T19:41:10.228Z,15.53
2023-05-16T19:43:38.791Z,16.30
2023-05-16T19:46:06.774Z,13.07
2023-05-16T19:48:37.137Z,12.87
2023-05-16T19:51:08.973Z,12.30
2023-05-16T19:53:37.524Z,15.37
2023-05-16T19:56:05.997Z,16.03
2023-05-16T19:58:35.525Z,14.20
2023-05-16T20:01:04.390Z,14.40
2023-05-16T20:03:32.713Z,20.03
2023-05-16T20:06:01.340Z,16.70
2023-05-16T20:08:33.095Z,17.30
2023-05-16T20:11:01.234Z,15.10
2023-05-16T20:13:30.544Z,13.93
2023-05-16T20:16:00.838Z,11.93
2023-05-16T20:18:31.931Z,15.40
2023-05-16T20:21:00.205Z,13.73
2023-05-16T20:23:30.077Z,13.73
2023-05-16T20:25:58.052Z,16.40
2023-05-16T20:28:26.050Z,14.70
2023-05-16T20:30:54.285Z,16.67
2023-05-16T20:33:23.811Z,16.90
2023-05-16T20:35:51.807Z,13.67
2023-05-16T20:38:19.733Z,12.17
2023-05-16T20:40:48.323Z,10.37
2023-05-16T20:43:16.357Z,12.83
2023-05-16T20:45:44.379Z,10.60
2023-05-16T20:48:14.203Z,11.33
2023-05-16T20:50:43.704Z,10.93
2023-05-16T20:53:11.681Z,13.03
2023-05-16T20:55:39.633Z,11.40
2023-05-16T20:58:07.642Z,10.63
2023-05-16T21:00:35.590Z,13.67
2023-05-16T21:03:03.822Z,11.87
2023-05-16T21:05:33.624Z,11.87
2023-05-16T21:08:03.120Z,22.00
2023-05-16T21:10:31.170Z,12.17
2023-05-16T21:12:59.269Z,11.57
2023-05-16T21:15:27.415Z,11.20
2023-05-16T21:17:55.781Z,12.97
2023-05-16T21:20:23.822Z,13.87
2023-05-16T21:22:51.821Z,14.13
2023-05-16T21:25:21.236Z,14.87
2023-05-16T21:27:49.238Z,12.83
2023-05-16T21:30:17.358Z,35.30
2023-05-16T21:32:45.383Z,20.27
2023-05-16T21:35:13.482Z,16.93
2023-05-16T21:37:41.492Z,11.33
2023-05-16T21:40:10.402Z,12.97
2023-05-16T21:42:39.793Z,12.07
2023-05-16T21:45:12.888Z,13.83
2023-05-16T21:47:41.018Z,12.87
2023-05-16T21:50:10.639Z,12.97
2023-05-16T21:52:39.980Z,15.97
2023-05-16T21:55:08.619Z,15.37
2023-05-16T21:57:36.581Z,19.23
2023-05-16T22:00:09.608Z,14.73
2023-05-16T22:02:38.249Z,14.70
2023-05-16T22:05:07.607Z,14.10
2023-05-16T22:07:35.836Z,16.27
2023-05-16T22:10:05.075Z,14.87
2023-05-16T22:12:33.101Z,17.50
2023-05-16T22:15:01.127Z,14.43
2023-05-16T22:17:30.693Z,13.70
2023-05-16T22:19:58.705Z,14.20
2023-05-16T22:22:26.670Z,10.47
2023-05-16T22:24:54.801Z,11.17
2023-05-16T22:27:22.801Z,9.60
2023-05-16T22:29:50.780Z,9.03
2023-05-16T22:32:18.850Z,11.13
2023-05-16T22:34:48.226Z,12.00
2023-05-16T22:37:16.317Z,8.87
2023-05-16T22:39:44.315Z,12.33
2023-05-16T22:42:12.854Z,9.67
2023-05-16T22:44:40.811Z,13.73
2023-05-16T22:47:08.801Z,13.00
2023-05-16T22:49:36.872Z,13.63
2023-05-16T22:52:06.836Z,9.93
2023-05-16T22:54:34.891Z,9.10
2023-05-16T22:57:02.845Z,12.27
2023-05-16T22:59:31.173Z,12.77
2023-05-16T23:01:59.223Z,14.03
2023-05-16T23:04:27.262Z,14.07
2023-05-16T23:06:55.200Z,14.33
2023-05-16T23:09:24.544Z,16.63
2023-05-16T23:11:52.574Z,11.47
2023-05-16T23:14:20.575Z,9.87
2023-05-16T23:16:48.687Z,13.53
2023-05-16T23:19:16.914Z,10.10
2023-05-16T23:21:45.068Z,9.53
2023-05-16T23:24:13.074Z,9.57
2023-05-16T23:26:42.391Z,11.10
2023-05-16T23:29:10.443Z,9.87
2023-05-16T23:31:38.551Z,11.33
2023-05-16T23:34:06.687Z,14.93
2023-05-16T23:36:34.669Z,12.73
2023-05-16T23:39:02.668Z,12.73
2023-05-16T23:41:31.159Z,11.83
2023-05-16T23:44:00.504Z,12.30
2023-05-16T23:46:28.543Z,11.73
2023-05-16T23:48:57.264Z,9.77
2023-05-16T23:51:25.431Z,13.53
2023-05-16T23:53:53.532Z,10.50
2023-05-16T23:56:21.502Z,13.43
2023-05-16T23:58:50.166Z,13.47
